Time;durP1;ratioP1;P1;durP2;ratioP2;P2;SDS_P1;SDS_P2;PMS_P1;PMS_P2;Temp;Humidity;BMP_temperature;BMP_pressure;BME280_temperature;BME280_humidity;BME280_pressure;Samples;Min_cycle;Max_cycle;Signal;HPM_P1;HPM_P2
2024/01/06 00:01:54;;;;;;;1.27;1.00;;;22.60;38.40;;;;;;5124410;28;20024;-34
2024/01/06 00:04:20;;;;;;;1.00;0.90;;;22.60;38.50;;;;;;5120937;28;20027;-36
2024/01/06 00:06:46;;;;;;;1.15;1.00;;;22.50;38.40;;;;;;5120639;27;20027;-33
2024/01/06 00:09:12;;;;;;;0.90;0.90;;;22.50;38.40;;;;;;5120654;28;20044;-35
2024/01/06 00:11:38;;;;;;;2.63;0.85;;;22.60;38.40;;;;;;5117396;28;20051;-36
2024/01/06 00:14:04;;;;;;;1.25;0.80;;;22.60;38.40;;;;;;5108260;28;20035;-35
2024/01/06 00:16:30;;;;;;;1.00;0.90;;;22.60;38.30;;;;;;5114840;28;20024;-35
2024/01/06 00:18:57;;;;;;;5.97;1.00;;;22.50;38.40;;;;;;5114576;28;20030;-35
2024/01/06 00:21:23;;;;;;;4.88;1.00;;;22.50;38.50;;;;;;5112678;28;20241;-36
2024/01/06 00:23:49;;;;;;;2.03;0.90;;;22.50;38.50;;;;;;5112290;27;20031;-36
2024/01/06 00:26:15;;;;;;;4.75;1.00;;;22.50;38.50;;;;;;5115929;27;20038;-35
2024/01/06 00:28:41;;;;;;;0.88;0.77;;;22.50;38.40;;;;;;5113616;28;20032;-32
2024/01/06 00:31:07;;;;;;;2.58;1.13;;;22.50;38.40;;;;;;5113403;28;20052;-34
2024/01/06 00:33:33;;;;;;;1.10;0.98;;;22.50;38.40;;;;;;5114501;27;20036;-36
2024/01/06 00:35:59;;;;;;;1.05;0.90;;;22.50;38.50;;;;;;5114835;27;20036;-36
2024/01/06 00:38:26;;;;;;;1.15;0.82;;;22.40;38.50;;;;;;5112917;28;20028;-33
2024/01/06 00:40:52;;;;;;;0.90;0.90;;;22.50;38.50;;;;;;5114071;27;20020;-33
2024/01/06 00:43:18;;;;;;;1.75;1.00;;;22.50;38.40;;;;;;5108641;28;20397;-33
2024/01/06 00:45:44;;;;;;;1.17;0.95;;;22.50;38.40;;;;;;5117111;27;20039;-35
2024/01/06 00:48:10;;;;;;;0.82;0.80;;;22.50;38.40;;;;;;5113269;28;20099;-34
2024/01/06 00:50:36;;;;;;;1.02;0.93;;;22.40;38.40;;;;;;5115155;28;20035;-35
2024/01/06 00:53:03;;;;;;;1.17;0.98;;;22.40;38.50;;;;;;5116244;28;20039;-35
2024/01/06 00:55:29;;;;;;;1.00;0.90;;;22.40;38.40;;;;;;5113755;28;20035;-34
2024/01/06 00:57:55;;;;;;;0.88;0.88;;;22.50;38.40;;;;;;5098641;28;20087;-35
2024/01/06 01:00:22;;;;;;;0.98;0.93;;;22.50;38.40;;;;;;5119851;27;20027;-34
2024/01/06 01:02:48;;;;;;;1.20;1.10;;;22.40;38.30;;;;;;5121187;27;20027;-37
2024/01/06 01:05:15;;;;;;;0.95;0.90;;;22.40;38.40;;;;;;5111188;28;20040;-36
2024/01/06 01:07:41;;;;;;;1.00;0.90;;;22.40;38.50;;;;;;5119260;27;20028;-34
2024/01/06 01:10:08;;;;;;;1.00;0.90;;;22.30;38.50;;;;;;5094948;28;20046;-35
2024/01/06 01:12:35;;;;;;;2.25;0.95;;;22.40;38.40;;;;;;5107622;28;20024;-34
2024/01/06 01:15:01;;;;;;;1.02;0.80;;;22.40;38.40;;;;;;5113974;28;20027;-36
2024/01/06 01:17:27;;;;;;;1.00;0.80;;;22.40;38.30;;;;;;5110229;28;20020;-35
2024/01/06 01:19:53;;;;;;;1.05;0.95;;;22.40;38.60;;;;;;5109687;28;20039;-33
2024/01/06 01:22:19;;;;;;;1.00;0.85;;;22.30;38.70;;;;;;5115700;27;20031;-35
2024/01/06 01:24:45;;;;;;;1.02;0.93;;;22.30;38.80;;;;;;5113122;28;20461;-36
2024/01/06 01:27:11;;;;;;;1.10;1.00;;;22.40;38.60;;;;;;5120192;28;20035;-34
2024/01/06 01:29:38;;;;;;;1.20;1.10;;;22.40;38.50;;;;;;5114664;28;20068;-33
2024/01/06 01:32:04;;;;;;;3.38;0.85;;;22.40;38.50;;;;;;5109140;28;20048;-35
2024/01/06 01:34:30;;;;;;;1.38;0.95;;;22.40;38.60;;;;;;5097480;28;20019;-33
2024/01/06 01:36:57;;;;;;;1.15;0.98;;;22.30;38.80;;;;;;5114730;28;20109;-34
2024/01/06 01:39:23;;;;;;;1.25;1.10;;;22.30;38.90;;;;;;5119097;28;20083;-34
2024/01/06 01:41:49;;;;;;;1.52;1.15;;;22.30;38.80;;;;;;5116277;28;20092;-35
2024/01/06 01:44:16;;;;;;;1.45;0.95;;;22.40;38.60;;;;;;5115866;28;20032;-34
2024/01/06 01:46:42;;;;;;;1.10;1.00;;;22.40;38.50;;;;;;5116571;28;20016;-36
2024/01/06 01:49:08;;;;;;;1.10;1.00;;;22.30;38.50;;;;;;5118070;28;20095;-34
2024/01/06 01:51:35;;;;;;;1.25;0.90;;;22.30;38.60;;;;;;5114017;28;20047;-32
2024/01/06 01:54:05;;;;;;;1.45;1.20;;;22.30;38.70;;;;;;5116203;28;20031;-33
2024/01/06 01:56:35;;;;;;;1.20;1.10;;;22.30;38.60;;;;;;5111993;28;20099;-35
2024/01/06 01:59:03;;;;;;;1.10;1.00;;;22.40;38.50;;;;;;5109251;28;20020;-35
2024/01/06 02:01:29;;;;;;;1.10;0.95;;;22.40;38.50;;;;;;5091703;28;20024;-31
2024/01/06 02:03:55;;;;;;;2.15;1.15;;;22.30;38.40;;;;;;5112827;28;20039;-32
2024/01/06 02:06:22;;;;;;;1.05;0.95;;;22.30;38.60;;;;;;5077888;28;20050;-34
2024/01/06 02:08:48;;;;;;;1.88;1.02;;;22.30;38.70;;;;;;5106398;28;20119;-32
2024/01/06 02:11:14;;;;;;;1.73;1.10;;;22.30;38.60;;;;;;5113409;27;20028;-32
2024/01/06 02:13:40;;;;;;;1.23;0.90;;;22.30;38.50;;;;;;5112482;28;20035;-34
2024/01/06 02:16:06;;;;;;;1.00;0.90;;;22.30;38.50;;;;;;5115727;28;20030;-34
2024/01/06 02:18:33;;;;;;;1.23;0.80;;;22.30;38.50;;;;;;5119855;28;20016;-33
2024/01/06 02:21:00;;;;;;;1.65;1.20;;;22.30;38.70;;;;;;5116780;28;20032;-34
2024/01/06 02:23:26;;;;;;;;;;;22.30;38.80;;;;;;5100936;28;20082;-35
2024/01/06 02:25:52;;;;;;;1.33;1.00;;;22.30;38.70;;;;;;5114610;28;19918;-35
2024/01/06 02:28:19;;;;;;;1.10;1.00;;;22.30;38.60;;;;;;5105998;28;20036;-33
2024/01/06 02:30:45;;;;;;;1.30;1.20;;;22.30;38.50;;;;;;5113428;28;20039;-33
2024/01/06 02:33:11;;;;;;;1.10;1.00;;;22.30;38.70;;;;;;5113109;28;20051;-36
2024/01/06 02:35:37;;;;;;;1.17;1.00;;;22.30;38.70;;;;;;5112392;28;20035;-34
2024/01/06 02:38:03;;;;;;;1.23;1.08;;;22.20;38.70;;;;;;5116152;28;20038;-33
2024/01/06 02:40:29;;;;;;;1.10;1.00;;;22.30;38.70;;;;;;5116116;28;20027;-33
2024/01/06 02:42:56;;;;;;;1.20;1.10;;;22.30;38.70;;;;;;5093344;28;20079;-32
2024/01/06 02:45:22;;;;;;;1.65;1.15;;;22.30;38.60;;;;;;5115739;28;20028;-35
2024/01/06 02:47:48;;;;;;;1.10;1.00;;;22.30;38.80;;;;;;5115699;28;20043;-33
2024/01/06 02:50:14;;;;;;;1.73;1.08;;;22.20;38.70;;;;;;5112328;28;20050;-36
2024/01/06 02:52:40;;;;;;;1.40;1.30;;;22.20;38.70;;;;;;5123562;27;20031;-35
2024/01/06 02:55:07;;;;;;;1.35;1.13;;;22.30;38.70;;;;;;5108912;28;20024;-36
2024/01/06 02:57:33;;;;;;;1.10;1.00;;;22.30;38.60;;;;;;5118843;27;20024;-32
2024/01/06 02:59:59;;;;;;;1.30;1.10;;;22.30;38.60;;;;;;5089802;28;20353;-35
2024/01/06 03:02:25;;;;;;;1.15;1.05;;;22.30;38.60;;;;;;5116709;28;20038;-34
2024/01/06 03:04:52;;;;;;;1.27;1.15;;;22.30;38.60;;;;;;5115607;28;20036;-34
2024/01/06 03:07:18;;;;;;;1.63;1.23;;;22.20;38.70;;;;;;5113484;28;20030;-34
2024/01/06 03:09:44;;;;;;;1.17;1.08;;;22.30;38.70;;;;;;5117137;28;20050;-31
2024/01/06 03:12:11;;;;;;;1.25;1.05;;;22.30;38.70;;;;;;5109451;28;20028;-37
2024/01/06 03:14:37;;;;;;;1.85;1.30;;;22.30;38.70;;;;;;5115567;28;20024;-35
2024/01/06 03:17:04;;;;;;;3.27;1.33;;;22.30;38.70;;;;;;5111051;28;20038;-35
2024/01/06 03:19:30;;;;;;;1.58;1.23;;;22.30;38.90;;;;;;5109548;28;20291;-35
2024/01/06 03:21:57;;;;;;;1.65;1.23;;;22.30;38.90;;;;;;5113683;28;20096;-34
2024/01/06 03:24:24;;;;;;;4.07;1.30;;;22.30;38.90;;;;;;5115015;28;20139;-36
2024/01/06 03:26:50;;;;;;;1.65;1.35;;;22.50;38.80;;;;;;5112102;28;20024;-35
2024/01/06 03:29:16;;;;;;;1.83;1.38;;;22.60;38.70;;;;;;5108903;28;20036;-33
2024/01/06 03:31:43;;;;;;;1.25;1.15;;;22.70;38.80;;;;;;5111420;28;20027;-36
2024/01/06 03:34:11;;;;;;;3.90;1.38;;;22.80;38.80;;;;;;5117881;28;20621;-36
2024/01/06 03:36:38;;;;;;;2.65;1.05;;;22.90;39.30;;;;;;5123252;28;20028;-32
2024/01/06 03:39:04;;;;;;;3.30;1.20;;;23.00;38.60;;;;;;5115440;28;20051;-35
2024/01/06 03:41:30;;;;;;;2.90;1.30;;;23.10;38.50;;;;;;5119339;28;20040;-33
2024/01/06 03:43:56;;;;;;;2.47;1.30;;;23.10;38.50;;;;;;5104600;28;20034;-34
2024/01/06 03:46:23;;;;;;;1.52;1.40;;;23.00;38.50;;;;;;5110953;28;20039;-34
2024/01/06 03:48:49;;;;;;;2.53;1.47;;;22.90;38.50;;;;;;5107647;28;20040;-36
2024/01/06 03:51:15;;;;;;;1.13;1.00;;;22.90;38.60;;;;;;5110811;28;20468;-36
2024/01/06 03:53:41;;;;;;;2.10;1.40;;;22.80;38.70;;;;;;5110724;28;20042;-36
2024/01/06 03:56:08;;;;;;;1.50;1.30;;;22.80;38.60;;;;;;5112109;28;20027;-32
2024/01/06 03:58:34;;;;;;;1.53;1.43;;;22.80;38.50;;;;;;5116717;28;20024;-32
2024/01/06 04:01:01;;;;;;;1.85;1.58;;;22.80;38.60;;;;;;5107383;28;20507;-36
2024/01/06 04:03:27;;;;;;;1.60;1.23;;;22.70;38.70;;;;;;5113618;28;20043;-33
2024/01/06 04:06:13;;;;;;;1.60;1.40;;;22.70;38.70;;;;;;5111221;28;20070;-37
2024/01/06 04:08:43;;;;;;;1.70;1.40;;;22.60;38.90;;;;;;5061861;28;20044;-34
2024/01/06 04:11:09;;;;;;;1.42;1.33;;;22.70;38.70;;;;;;5056916;28;21567;-36
2024/01/06 04:13:35;;;;;;;1.50;1.40;;;22.80;38.60;;;;;;5061976;28;20092;-34
2024/01/06 04:16:02;;;;;;;1.30;1.20;;;22.90;38.50;;;;;;5061707;28;20033;-34
2024/01/06 04:18:28;;;;;;;1.30;1.15;;;23.10;38.50;;;;;;5043492;28;20037;-36
2024/01/06 04:20:54;;;;;;;1.35;1.10;;;23.10;38.40;;;;;;5060562;28;20033;-33
2024/01/06 04:23:20;;;;;;;2.53;1.02;;;23.20;38.40;;;;;;5059591;28;20059;-36
2024/01/06 04:25:47;;;;;;;1.83;1.55;;;23.30;38.30;;;;;;5060135;28;20047;-33
2024/01/06 04:28:13;;;;;;;1.80;1.27;;;23.30;38.30;;;;;;5057013;28;20037;-34
2024/01/06 04:30:39;;;;;;;1.23;1.13;;;23.30;38.60;;;;;;5057570;28;20068;-36
2024/01/06 04:33:06;;;;;;;1.90;1.50;;;23.20;38.70;;;;;;5058116;28;20309;-35
2024/01/06 04:35:32;;;;;;;2.30;1.30;;;23.20;38.80;;;;;;5060946;28;20039;-33
2024/01/06 04:37:58;;;;;;;1.50;1.17;;;23.10;38.90;;;;;;5056677;28;20025;-30
2024/01/06 04:40:24;;;;;;;1.20;1.10;;;23.10;39.00;;;;;;5057564;28;20045;-35
2024/01/06 04:42:50;;;;;;;1.17;1.08;;;23.00;39.00;;;;;;5059435;28;20119;-34
2024/01/06 04:45:19;;;;;;;1.85;1.27;;;23.00;38.80;;;;;;5077349;28;20042;-31
2024/01/06 04:47:45;;;;;;;1.48;1.38;;;23.00;38.70;;;;;;5113790;28;20043;-35
2024/01/06 04:50:12;;;;;;;1.52;1.42;;;22.90;38.80;;;;;;5115006;28;20072;-30
2024/01/06 04:52:38;;;;;;;1.30;1.20;;;22.90;38.80;;;;;;5112270;28;20097;-33
2024/01/06 04:55:04;;;;;;;2.15;1.48;;;22.80;38.80;;;;;;5117281;28;20365;-34
2024/01/06 04:57:30;;;;;;;1.13;1.03;;;22.80;38.90;;;;;;5118688;28;20530;-34
2024/01/06 04:59:56;;;;;;;1.25;0.95;;;22.90;38.70;;;;;;5120711;27;20291;-31
2024/01/06 05:02:22;;;;;;;2.10;1.05;;;23.10;38.40;;;;;;5112029;28;20654;-28
2024/01/06 05:04:49;;;;;;;2.05;1.20;;;23.20;38.30;;;;;;5108261;28;20020;-31
2024/01/06 05:07:15;;;;;;;1.25;1.02;;;23.30;38.30;;;;;;5110566;28;20024;-30
2024/01/06 05:09:41;;;;;;;1.45;1.08;;;23.50;38.20;;;;;;5113597;28;20043;-31
2024/01/06 05:12:07;;;;;;;1.10;1.00;;;23.60;38.70;;;;;;5114207;28;20024;-30
2024/01/06 05:14:34;;;;;;;1.35;1.10;;;23.60;37.90;;;;;;5113967;28;20031;-29
2024/01/06 05:17:00;;;;;;;1.63;1.13;;;23.60;37.30;;;;;;5116062;27;20084;-32
2024/01/06 05:19:26;;;;;;;3.35;1.27;;;23.50;38.30;;;;;;5109560;28;20559;-32
2024/01/06 05:21:52;;;;;;;3.60;1.23;;;23.40;38.20;;;;;;5115308;28;20663;-31
2024/01/06 05:24:19;;;;;;;5.63;1.08;;;23.30;38.40;;;;;;5110251;28;20028;-29
2024/01/06 05:26:45;;;;;;;8.05;1.55;;;23.30;38.50;;;;;;5117178;28;20050;-29
2024/01/06 05:29:11;;;;;;;9.40;1.35;;;23.20;38.60;;;;;;5092818;28;20048;-30
2024/01/06 05:31:37;;;;;;;3.33;1.25;;;23.20;38.90;;;;;;5111687;28;20020;-29
2024/01/06 05:34:04;;;;;;;4.38;1.45;;;23.20;38.90;;;;;;5117165;28;20034;-32
2024/01/06 05:36:30;;;;;;;3.95;1.40;;;23.20;38.90;;;;;;5122948;28;20024;-32
2024/01/06 05:38:56;;;;;;;2.95;1.30;;;23.10;38.90;;;;;;5126533;27;20095;-32
2024/01/06 05:41:22;;;;;;;1.85;1.27;;;23.00;38.90;;;;;;5117301;28;20031;-33
2024/01/06 05:43:49;;;;;;;1.67;1.13;;;22.90;39.00;;;;;;5105820;28;20035;-31
2024/01/06 05:46:24;;;;;;;1.67;1.10;;;22.90;39.00;;;;;;5117670;28;20031;-31
2024/01/06 05:48:50;;;;;;;3.22;1.23;;;22.90;39.00;;;;;;5125054;27;20092;-33
2024/01/06 05:51:17;;;;;;;1.52;1.17;;;22.90;39.00;;;;;;5113248;28;20158;-31
2024/01/06 05:53:43;;;;;;;2.35;1.27;;;22.90;39.00;;;;;;5113421;28;20032;-32
2024/01/06 05:56:09;;;;;;;4.47;1.00;;;23.00;39.00;;;;;;5108449;28;20020;-34
2024/01/06 05:58:35;;;;;;;1.50;1.13;;;23.20;38.80;;;;;;5090319;28;20028;-31
2024/01/06 06:01:01;;;;;;;2.08;1.20;;;23.30;38.70;;;;;;5106900;28;20040;-34
2024/01/06 06:03:28;;;;;;;1.67;1.10;;;23.30;38.80;;;;;;5113058;28;20050;-32
2024/01/06 06:05:54;;;;;;;2.67;1.02;;;23.30;39.20;;;;;;5111490;28;20032;-30
2024/01/06 06:08:20;;;;;;;2.88;1.20;;;23.20;39.20;;;;;;5109348;28;20024;-28
2024/01/06 06:11:01;;;;;;;2.75;1.10;;;23.10;39.30;;;;;;5116112;28;20121;-30
2024/01/06 06:13:30;;;;;;;4.05;1.20;;;23.10;39.40;;;;;;5108726;28;20027;-30
2024/01/06 06:15:57;;;;;;;2.05;1.30;;;23.00;39.60;;;;;;5118623;28;20032;-29
2024/01/06 06:18:23;;;;;;;1.08;0.98;;;22.90;39.40;;;;;;5113392;28;20020;-32
2024/01/06 06:20:49;;;;;;;2.25;1.40;;;22.90;39.40;;;;;;5113394;28;20032;-30
2024/01/06 06:23:16;;;;;;;2.75;1.40;;;22.90;39.40;;;;;;5107396;28;20031;-28
2024/01/06 06:25:42;;;;;;;2.30;1.27;;;22.90;40.10;;;;;;5115926;28;20084;-30
2024/01/06 06:28:08;;;;;;;2.53;1.83;;;22.80;39.60;;;;;;5105811;28;20047;-30
2024/01/06 06:30:35;;;;;;;1.83;1.40;;;22.70;39.70;;;;;;5109648;28;20028;-32
2024/01/06 06:33:01;;;;;;;1.80;1.33;;;22.70;39.60;;;;;;5110451;28;20705;-29
2024/01/06 06:35:27;;;;;;;2.30;1.35;;;22.80;39.50;;;;;;5108724;28;20115;-28
2024/01/06 06:37:53;;;;;;;1.45;1.33;;;23.00;39.30;;;;;;5113397;28;20040;-28
2024/01/06 06:40:19;;;;;;;1.92;1.40;;;23.00;39.20;;;;;;5112115;28;20035;-27
2024/01/06 06:42:45;;;;;;;1.40;1.30;;;22.90;39.20;;;;;;5111277;28;20040;-32
2024/01/06 06:45:12;;;;;;;2.53;1.45;;;22.90;39.40;;;;;;5111702;28;20031;-28
2024/01/06 06:47:38;;;;;;;2.05;1.55;;;22.80;39.60;;;;;;5113607;27;20062;-28
2024/01/06 06:50:05;;;;;;;1.70;1.40;;;22.80;39.50;;;;;;5112820;28;20131;-30
2024/01/06 06:52:31;;;;;;;1.65;1.42;;;22.70;39.50;;;;;;5112923;28;20054;-30
2024/01/06 06:54:57;;;;;;;1.73;1.50;;;22.70;39.60;;;;;;5111108;28;20057;-31
2024/01/06 06:57:24;;;;;;;1.63;1.30;;;22.70;39.70;;;;;;5108954;28;20093;-32
2024/01/06 06:59:50;;;;;;;1.45;1.35;;;22.60;39.70;;;;;;5108627;28;20115;-31
2024/01/06 07:02:16;;;;;;;3.15;1.25;;;22.50;39.80;;;;;;5114540;28;20028;-28
2024/01/06 07:04:42;;;;;;;1.73;1.10;;;22.60;39.80;;;;;;5109232;28;20019;-31
2024/01/06 07:07:09;;;;;;;1.08;0.90;;;22.70;39.40;;;;;;5098087;28;20035;-30
2024/01/06 07:09:35;;;;;;;1.30;1.20;;;22.90;39.30;;;;;;5111699;28;20100;-31
2024/01/06 07:12:01;;;;;;;1.40;1.00;;;23.00;39.20;;;;;;5111591;28;20053;-32
2024/01/06 07:14:27;;;;;;;1.50;1.38;;;23.10;39.10;;;;;;5110076;28;20081;-30
2024/01/06 07:16:53;;;;;;;1.50;1.40;;;23.20;39.00;;;;;;5113027;28;20032;-32
2024/01/06 07:19:19;;;;;;;3.15;1.10;;;23.30;38.90;;;;;;5115636;28;20024;-33
2024/01/06 07:21:45;;;;;;;1.55;1.23;;;23.20;39.00;;;;;;5115184;28;20110;-32
2024/01/06 07:24:12;;;;;;;1.38;1.10;;;23.10;39.00;;;;;;5110857;28;20090;-30
2024/01/06 07:26:38;;;;;;;1.90;1.30;;;23.10;39.20;;;;;;5105901;28;20024;-29
2024/01/06 07:29:04;;;;;;;1.48;1.30;;;23.00;39.40;;;;;;5113265;28;20039;-29
2024/01/06 07:31:30;;;;;;;1.23;1.13;;;22.90;39.40;;;;;;5117087;28;20154;-32
2024/01/06 07:33:57;;;;;;;1.40;1.08;;;22.80;40.10;;;;;;5089835;28;20055;-29
2024/01/06 07:36:23;;;;;;;3.50;1.10;;;22.80;39.30;;;;;;5116602;28;20516;-30
2024/01/06 07:38:49;;;;;;;1.23;1.03;;;22.80;39.40;;;;;;5115631;28;20024;-32
2024/01/06 07:41:15;;;;;;;1.35;1.10;;;22.70;39.30;;;;;;5115364;28;20059;-30
2024/01/06 07:43:41;;;;;;;1.70;1.35;;;22.70;39.40;;;;;;5112492;28;20027;-32
2024/01/06 07:46:09;;;;;;;1.55;1.23;;;22.60;39.50;;;;;;5121476;27;20055;-33
2024/01/06 07:48:35;;;;;;;1.83;1.27;;;22.60;39.70;;;;;;5121587;28;20109;-32
2024/01/06 07:51:03;;;;;;;1.45;1.20;;;22.60;39.50;;;;;;5116738;28;20101;-29
2024/01/06 07:53:29;;;;;;;2.05;0.98;;;22.70;39.40;;;;;;5117426;28;20106;-30
2024/01/06 07:55:55;;;;;;;1.00;0.82;;;22.90;39.20;;;;;;5117756;28;20035;-31
2024/01/06 07:58:21;;;;;;;1.27;1.02;;;23.00;39.10;;;;;;5119386;28;20023;-29
2024/01/06 08:00:48;;;;;;;1.10;1.00;;;23.10;39.00;;;;;;5115636;28;20032;-33
2024/01/06 08:03:16;;;;;;;1.37;0.80;;;23.20;39.00;;;;;;5118496;28;20038;-33
2024/01/06 08:05:42;;;;;;;1.40;1.00;;;23.30;38.80;;;;;;5111426;28;20342;-34
2024/01/06 08:08:08;;;;;;;1.50;0.95;;;23.20;38.90;;;;;;5113431;28;20552;-30
2024/01/06 08:10:34;;;;;;;1.10;0.83;;;23.10;38.90;;;;;;5098143;28;20050;-32
2024/01/06 08:13:01;;;;;;;1.13;0.80;;;23.00;39.20;;;;;;5112630;27;20389;-34
2024/01/06 08:15:27;;;;;;;4.20;0.98;;;22.90;39.20;;;;;;5100012;28;20028;-34
2024/01/06 08:17:53;;;;;;;1.30;0.95;;;22.90;39.00;;;;;;5118870;28;20035;-31
2024/01/06 08:20:19;;;;;;;2.80;0.85;;;22.90;38.70;;;;;;5118362;28;20024;-30
2024/01/06 08:22:45;;;;;;;1.30;0.90;;;22.90;38.60;;;;;;5112343;28;20549;-33
2024/01/06 08:25:13;;;;;;;2.58;1.00;;;22.90;38.90;;;;;;5119496;28;20034;-30
2024/01/06 08:27:39;;;;;;;1.45;1.20;;;22.80;38.90;;;;;;5114371;28;20024;-33
2024/01/06 08:30:06;;;;;;;3.33;1.00;;;22.70;39.20;;;;;;5116685;28;20043;-31
2024/01/06 08:32:32;;;;;;;1.05;0.90;;;22.60;39.50;;;;;;5095979;28;20639;-31
2024/01/06 08:34:58;;;;;;;1.38;1.00;;;22.60;39.60;;;;;;5111318;28;20038;-34
2024/01/06 08:37:24;;;;;;;0.90;0.70;;;22.60;39.60;;;;;;5116808;27;20019;-36
2024/01/06 08:39:50;;;;;;;0.90;0.70;;;22.70;39.50;;;;;;5096526;28;20081;-31
2024/01/06 08:42:16;;;;;;;2.63;0.65;;;22.80;39.40;;;;;;5112568;28;20703;-32
2024/01/06 08:44:43;;;;;;;0.77;0.75;;;23.00;39.30;;;;;;5114057;28;20115;-29
2024/01/06 08:47:10;;;;;;;1.20;0.73;;;23.10;39.20;;;;;;5115758;28;20054;-30
2024/01/06 08:49:36;;;;;;;1.95;1.20;;;23.20;39.10;;;;;;5112873;28;20035;-33
2024/01/06 08:52:02;;;;;;;1.85;0.80;;;23.20;39.10;;;;;;5093275;28;20020;-35
2024/01/06 08:54:28;;;;;;;3.05;0.80;;;23.20;39.10;;;;;;5117499;28;20050;-32
2024/01/06 08:56:55;;;;;;;0.90;0.70;;;23.10;39.30;;;;;;5118438;27;20062;-28
2024/01/06 08:59:21;;;;;;;1.55;0.90;;;23.00;39.30;;;;;;5116409;27;20034;-31
2024/01/06 09:01:47;;;;;;;3.28;0.90;;;22.90;39.50;;;;;;5118036;28;20030;-31
2024/01/06 09:04:13;;;;;;;2.13;0.90;;;22.80;39.60;;;;;;5122619;28;20023;-28
2024/01/06 09:06:39;;;;;;;1.17;0.80;;;22.80;39.40;;;;;;5114487;28;20076;-32
2024/01/06 09:09:06;;;;;;;1.10;0.88;;;22.80;39.50;;;;;;5120061;28;20062;-33
2024/01/06 09:11:32;;;;;;;1.53;0.93;;;22.70;39.50;;;;;;5119116;28;20027;-32
2024/01/06 09:13:58;;;;;;;0.80;0.80;;;22.70;39.70;;;;;;5118895;28;20028;-33
2024/01/06 09:16:24;;;;;;;1.42;0.98;;;22.60;39.80;;;;;;5117323;28;20024;-29
2024/01/06 09:18:50;;;;;;;0.82;0.70;;;22.60;39.80;;;;;;5111317;28;20028;-31
2024/01/06 09:21:17;;;;;;;0.80;0.70;;;22.60;39.70;;;;;;5114741;28;20020;-29
2024/01/06 09:23:43;;;;;;;0.80;0.77;;;22.80;39.60;;;;;;5111735;28;20033;-31
2024/01/06 09:26:10;;;;;;;0.63;0.63;;;22.90;39.30;;;;;;5116806;28;20077;-31
2024/01/06 09:28:36;;;;;;;1.33;0.80;;;23.00;39.30;;;;;;5112611;28;20091;-31
2024/01/06 09:31:02;;;;;;;1.15;0.80;;;23.10;39.20;;;;;;5116616;28;20325;-29
2024/01/06 09:33:28;;;;;;;1.17;0.50;;;23.20;39.10;;;;;;5112373;28;20046;-34
2024/01/06 09:35:54;;;;;;;1.10;0.60;;;23.30;39.10;;;;;;5108797;28;20031;-30
2024/01/06 09:38:20;;;;;;;0.77;0.60;;;23.20;39.30;;;;;;5113423;28;20031;-29
2024/01/06 09:40:47;;;;;;;2.67;1.15;;;23.10;39.40;;;;;;5111327;28;20115;-29
2024/01/06 09:43:13;;;;;;;1.25;0.60;;;23.10;39.50;;;;;;5115241;28;20026;-30
2024/01/06 09:45:39;;;;;;;1.35;0.68;;;23.00;39.70;;;;;;5105445;28;20032;-33
2024/01/06 09:48:11;;;;;;;0.75;0.60;;;22.90;39.70;;;;;;5100793;28;20020;-34
2024/01/06 09:50:38;;;;;;;0.77;0.60;;;22.80;39.60;;;;;;5123821;27;20055;-33
2024/01/06 09:53:06;;;;;;;0.75;0.50;;;22.80;39.60;;;;;;5095952;28;20048;-30
2024/01/06 09:55:32;;;;;;;0.65;0.50;;;22.80;39.70;;;;;;5100373;28;20032;-34
2024/01/06 09:57:59;;;;;;;0.60;0.60;;;22.70;39.80;;;;;;5094433;28;20024;-30
2024/01/06 10:00:25;;;;;;;0.68;0.57;;;22.70;39.80;;;;;;5094336;28;20020;-32
2024/01/06 10:02:51;;;;;;;0.50;0.50;;;22.60;39.80;;;;;;5097357;28;20030;-31
2024/01/06 10:05:17;;;;;;;0.73;0.50;;;22.70;39.80;;;;;;5095421;28;20051;-33
2024/01/06 10:07:47;;;;;;;0.50;0.50;;;22.80;39.70;;;;;;5098593;28;20108;-31
2024/01/06 10:10:13;;;;;;;0.57;0.43;;;22.90;39.50;;;;;;5087858;28;20032;-33
2024/01/06 10:12:40;;;;;;;0.50;0.50;;;23.10;39.40;;;;;;5120263;27;20047;-34
2024/01/06 10:15:07;;;;;;;;;;;23.20;39.30;;;;;;5092750;28;20027;-33
2024/01/06 10:17:36;;;;;;;0.60;0.50;;;23.30;39.20;;;;;;5089479;28;19916;-32
2024/01/06 10:20:02;;;;;;;0.90;0.45;;;23.30;39.10;;;;;;5095882;28;20032;-32
2024/01/06 10:22:29;;;;;;;0.57;0.50;;;23.30;39.20;;;;;;5094455;28;20029;-32
2024/01/06 10:24:56;;;;;;;0.70;0.50;;;23.20;39.30;;;;;;5093609;28;20036;-34
2024/01/06 10:27:22;;;;;;;0.68;0.50;;;23.10;39.50;;;;;;5097043;28;20032;-32
2024/01/06 10:29:48;;;;;;;0.52;0.50;;;23.00;39.60;;;;;;5095954;28;20036;-32
2024/01/06 10:32:14;;;;;;;0.60;0.50;;;22.90;39.70;;;;;;5092872;28;20114;-33
2024/01/06 10:34:40;;;;;;;0.80;0.70;;;22.90;39.60;;;;;;5092141;28;20057;-31
2024/01/06 10:37:06;;;;;;;0.40;0.40;;;22.90;39.80;;;;;;5097693;28;20061;-32
2024/01/06 10:39:33;;;;;;;0.50;0.47;;;22.80;39.70;;;;;;5086406;28;20028;-30
2024/01/06 10:41:59;;;;;;;0.77;0.50;;;22.80;39.80;;;;;;5095473;28;20033;-34
2024/01/06 10:44:25;;;;;;;0.40;0.40;;;22.70;39.90;;;;;;5089293;28;20040;-34
2024/01/06 10:46:52;;;;;;;0.75;0.50;;;22.70;40.00;;;;;;5098206;28;20508;-30
2024/01/06 10:49:18;;;;;;;0.57;0.40;;;22.60;39.90;;;;;;5098710;28;20047;-33
2024/01/06 10:51:44;;;;;;;0.45;0.30;;;22.80;40.00;;;;;;5107062;28;20050;-29
2024/01/06 10:54:10;;;;;;;0.52;0.30;;;22.90;39.70;;;;;;5120770;28;20544;-30
2024/01/06 10:56:38;;;;;;;0.55;0.43;;;23.10;39.50;;;;;;5088137;28;20066;-29
2024/01/06 10:59:05;;;;;;;0.32;0.30;;;23.10;39.40;;;;;;5113263;28;20024;-31
2024/01/06 11:01:31;;;;;;;0.30;0.30;;;23.20;39.40;;;;;;5091251;28;20393;-33
2024/01/06 11:03:57;;;;;;;1.05;0.40;;;23.30;39.20;;;;;;5108390;28;20035;-33
2024/01/06 11:06:23;;;;;;;0.32;0.30;;;23.40;39.20;;;;;;5101222;28;20403;-34
2024/01/06 11:09:08;;;;;;;0.30;0.30;;;23.30;39.30;;;;;;5078327;28;20055;-31
2024/01/06 11:11:35;;;;;;;0.65;0.35;;;23.20;39.40;;;;;;5111075;28;20025;-30
2024/01/06 11:14:24;;;;;;;0.63;0.40;;;23.10;39.60;;;;;;5091620;28;20042;-35
2024/01/06 11:16:51;;;;;;;0.22;0.22;;;23.00;39.70;;;;;;5085763;28;20040;-35
2024/01/06 11:19:36;;;;;;;0.82;0.35;;;22.90;39.70;;;;;;5107493;28;20083;-31
2024/01/06 11:22:26;;;;;;;0.30;0.30;;;22.90;39.70;;;;;;5114058;28;20042;-34
2024/01/06 11:24:53;;;;;;;0.22;0.20;;;22.90;39.70;;;;;;5112693;28;20109;-32
2024/01/06 11:27:22;;;;;;;0.40;0.40;;;22.80;39.80;;;;;;5107309;28;20083;-33
2024/01/06 11:29:50;;;;;;;0.50;0.30;;;22.80;40.00;;;;;;5091458;28;20047;-31
2024/01/06 11:32:38;;;;;;;0.40;0.22;;;22.70;40.00;;;;;;5114001;28;20027;-31
2024/01/06 11:35:10;;;;;;;0.43;0.20;;;22.70;39.90;;;;;;5098792;28;20088;-33
2024/01/06 11:37:40;;;;;;;0.25;0.20;;;22.80;40.00;;;;;;5114536;28;20077;-32
2024/01/06 11:40:32;;;;;;;0.25;0.20;;;22.90;39.70;;;;;;5115607;28;20047;-34
2024/01/06 11:43:00;;;;;;;0.55;0.20;;;23.10;39.60;;;;;;5091896;28;20020;-32
2024/01/06 11:45:26;;;;;;;0.60;0.30;;;23.20;39.60;;;;;;5113408;28;20051;-30
2024/01/06 11:47:56;;;;;;;0.40;0.20;;;23.30;39.50;;;;;;5112812;28;20054;-35
2024/01/06 11:50:24;;;;;;;0.32;0.20;;;23.40;39.30;;;;;;5113496;28;20636;-33
2024/01/06 11:52:51;;;;;;;0.30;0.30;;;23.30;39.40;;;;;;5112077;28;20027;-34
2024/01/06 11:55:20;;;;;;;0.20;0.20;;;23.20;39.40;;;;;;5110129;28;20396;-34
2024/01/06 11:57:47;;;;;;;0.22;0.22;;;23.10;39.60;;;;;;5093034;28;20020;-33
2024/01/06 12:00:14;;;;;;;0.28;0.20;;;23.10;39.80;;;;;;5114559;28;20020;-34
2024/01/06 12:02:40;;;;;;;0.30;0.20;;;23.00;39.90;;;;;;5114585;28;20049;-32
2024/01/06 12:05:17;;;;;;;0.20;0.20;;;22.90;39.80;;;;;;5099499;28;20028;-31
2024/01/06 12:07:52;;;;;;;0.32;0.30;;;22.90;39.80;;;;;;5123272;28;20026;-33
2024/01/06 12:10:23;;;;;;;0.30;0.30;;;22.90;39.80;;;;;;5092070;28;20077;-32
2024/01/06 12:12:59;;;;;;;0.20;0.20;;;22.80;40.00;;;;;;5093678;28;20469;-31
2024/01/06 12:15:26;;;;;;;0.20;0.17;;;22.80;40.10;;;;;;5113660;28;20035;-31
2024/01/06 12:17:52;;;;;;;0.40;0.20;;;22.70;40.10;;;;;;5111681;28;20039;-31
2024/01/06 12:20:18;;;;;;;0.20;0.20;;;22.70;40.10;;;;;;5113065;28;20806;-34
2024/01/06 12:22:44;;;;;;;0.20;0.20;;;22.80;40.10;;;;;;5118114;28;20091;-31
2024/01/06 12:25:11;;;;;;;0.13;0.10;;;23.00;39.90;;;;;;5115180;28;20827;-31
2024/01/06 12:27:41;;;;;;;0.15;0.10;;;23.10;39.70;;;;;;5122607;27;20027;-34
2024/01/06 12:30:19;;;;;;;0.20;0.20;;;23.20;39.70;;;;;;5095578;28;20036;-31
2024/01/06 12:32:54;;;;;;;0.17;0.10;;;23.30;39.60;;;;;;5114959;28;20024;-31
2024/01/06 12:35:21;;;;;;;0.20;0.20;;;23.40;39.50;;;;;;5113075;28;20032;-35
2024/01/06 12:37:48;;;;;;;0.32;0.20;;;23.30;39.50;;;;;;5117495;28;20032;-34
2024/01/06 12:40:16;;;;;;;0.30;0.20;;;23.30;39.60;;;;;;5123796;28;20062;-33
2024/01/06 12:42:43;;;;;;;0.57;0.10;;;23.20;39.70;;;;;;5118896;28;20020;-30
2024/01/06 12:45:10;;;;;;;0.25;0.20;;;23.10;39.80;;;;;;5118830;28;20030;-30
2024/01/06 12:47:36;;;;;;;0.35;0.20;;;23.00;40.00;;;;;;5121941;28;20034;-32